sensor_id;sensor_type;location;lat;lon;timestamp;P1;durP1;ratioP1;P2;durP2;ratioP2
21354;SDS011;10835;50.148;19.760;2022-08-19T00:01:44;10.95;;;7.50;;
21354;SDS011;10835;50.148;19.760;2022-08-19T00:04:19;9.35;;;7.00;;
21354;SDS011;10835;50.148;19.760;2022-08-19T00:06:51;10.13;;;7.30;;
21354;SDS011;10835;50.148;19.760;2022-08-19T00:09:19;10.75;;;7.47;;
21354;SDS011;10835;50.148;19.760;2022-08-19T00:11:49;8.05;;;6.13;;
21354;SDS011;10835;50.148;19.760;2022-08-19T00:14:18;9.18;;;6.85;;
21354;SDS011;10835;50.148;19.760;2022-08-19T00:16:46;9.93;;;7.40;;
21354;SDS011;10835;50.148;19.760;2022-08-19T00:19:17;10.50;;;7.25;;
21354;SDS011;10835;50.148;19.760;2022-08-19T00:21:46;11.63;;;7.70;;
21354;SDS011;10835;50.148;19.760;2022-08-19T00:24:15;10.77;;;8.02;;
21354;SDS011;10835;50.148;19.760;2022-08-19T00:26:44;8.98;;;7.63;;
21354;SDS011;10835;50.148;19.760;2022-08-19T00:29:13;14.27;;;6.85;;
21354;SDS011;10835;50.148;19.760;2022-08-19T00:31:43;10.35;;;7.47;;
21354;SDS011;10835;50.148;19.760;2022-08-19T00:34:13;10.10;;;7.32;;
21354;SDS011;10835;50.148;19.760;2022-08-19T00:36:42;8.02;;;6.97;;
21354;SDS011;10835;50.148;19.760;2022-08-19T00:39:11;10.50;;;7.30;;
21354;SDS011;10835;50.148;19.760;2022-08-19T00:41:41;12.57;;;6.95;;
21354;SDS011;10835;50.148;19.760;2022-08-19T00:44:14;11.68;;;7.32;;
21354;SDS011;10835;50.148;19.760;2022-08-19T00:46:46;9.15;;;7.72;;
21354;SDS011;10835;50.148;19.760;2022-08-19T00:49:25;8.10;;;6.80;;
21354;SDS011;10835;50.148;19.760;2022-08-19T00:51:58;12.25;;;7.57;;
21354;SDS011;10835;50.148;19.760;2022-08-19T00:54:32;10.32;;;7.72;;
21354;SDS011;10835;50.148;19.760;2022-08-19T00:57:01;10.93;;;7.35;;
21354;SDS011;10835;50.148;19.760;2022-08-19T00:59:33;11.00;;;7.65;;
21354;SDS011;10835;50.148;19.760;2022-08-19T01:02:23;8.55;;;7.22;;
21354;SDS011;10835;50.148;19.760;2022-08-19T01:04:52;8.60;;;6.38;;
21354;SDS011;10835;50.148;19.760;2022-08-19T01:07:21;8.80;;;6.95;;
21354;SDS011;10835;50.148;19.760;2022-08-19T01:09:49;9.82;;;7.47;;
21354;SDS011;10835;50.148;19.760;2022-08-19T01:12:18;8.70;;;7.03;;
21354;SDS011;10835;50.148;19.760;2022-08-19T01:14:48;11.43;;;7.30;;
21354;SDS011;10835;50.148;19.760;2022-08-19T01:17:17;12.07;;;6.93;;
21354;SDS011;10835;50.148;19.760;2022-08-19T01:19:46;8.95;;;6.65;;
21354;SDS011;10835;50.148;19.760;2022-08-19T01:22:16;8.25;;;6.95;;
21354;SDS011;10835;50.148;19.760;2022-08-19T01:24:59;10.48;;;7.18;;
21354;SDS011;10835;50.148;19.760;2022-08-19T01:27:36;8.35;;;6.68;;
21354;SDS011;10835;50.148;19.760;2022-08-19T01:30:11;10.07;;;7.43;;
21354;SDS011;10835;50.148;19.760;2022-08-19T01:32:40;9.63;;;6.93;;
21354;SDS011;10835;50.148;19.760;2022-08-19T01:35:10;8.07;;;6.70;;
21354;SDS011;10835;50.148;19.760;2022-08-19T01:37:48;11.32;;;7.35;;
21354;SDS011;10835;50.148;19.760;2022-08-19T01:40:20;12.45;;;8.25;;
21354;SDS011;10835;50.148;19.760;2022-08-19T01:42:50;9.98;;;7.13;;
21354;SDS011;10835;50.148;19.760;2022-08-19T01:45:20;10.70;;;7.20;;
21354;SDS011;10835;50.148;19.760;2022-08-19T01:47:51;8.60;;;6.65;;
21354;SDS011;10835;50.148;19.760;2022-08-19T01:50:28;10.82;;;6.97;;
21354;SDS011;10835;50.148;19.760;2022-08-19T01:52:58;10.80;;;7.05;;
21354;SDS011;10835;50.148;19.760;2022-08-19T01:55:32;9.10;;;7.40;;
21354;SDS011;10835;50.148;19.760;2022-08-19T01:58:06;8.52;;;7.05;;
21354;SDS011;10835;50.148;19.760;2022-08-19T02:00:38;10.52;;;7.28;;
21354;SDS011;10835;50.148;19.760;2022-08-19T02:03:06;8.15;;;6.85;;
21354;SDS011;10835;50.148;19.760;2022-08-19T02:05:38;9.68;;;7.47;;
21354;SDS011;10835;50.148;19.760;2022-08-19T02:08:09;8.02;;;6.53;;
21354;SDS011;10835;50.148;19.760;2022-08-19T02:10:38;13.52;;;7.70;;
21354;SDS011;10835;50.148;19.760;2022-08-19T02:13:07;11.00;;;7.18;;
21354;SDS011;10835;50.148;19.760;2022-08-19T02:15:36;11.82;;;7.38;;
21354;SDS011;10835;50.148;19.760;2022-08-19T02:18:04;8.88;;;7.93;;
21354;SDS011;10835;50.148;19.760;2022-08-19T02:20:33;8.88;;;6.95;;
21354;SDS011;10835;50.148;19.760;2022-08-19T02:23:01;10.60;;;6.85;;
21354;SDS011;10835;50.148;19.760;2022-08-19T02:25:31;10.27;;;7.53;;
21354;SDS011;10835;50.148;19.760;2022-08-19T02:27:59;11.90;;;7.07;;
21354;SDS011;10835;50.148;19.760;2022-08-19T02:30:27;9.57;;;7.07;;
21354;SDS011;10835;50.148;19.760;2022-08-19T02:32:55;10.10;;;7.63;;
21354;SDS011;10835;50.148;19.760;2022-08-19T02:35:24;13.10;;;7.57;;
21354;SDS011;10835;50.148;19.760;2022-08-19T02:37:53;8.00;;;7.07;;
21354;SDS011;10835;50.148;19.760;2022-08-19T02:40:40;9.40;;;7.57;;
21354;SDS011;10835;50.148;19.760;2022-08-19T02:43:08;10.23;;;7.82;;
21354;SDS011;10835;50.148;19.760;2022-08-19T02:45:36;11.23;;;7.60;;
21354;SDS011;10835;50.148;19.760;2022-08-19T02:48:07;8.27;;;7.18;;
21354;SDS011;10835;50.148;19.760;2022-08-19T02:50:47;10.60;;;7.45;;
21354;SDS011;10835;50.148;19.760;2022-08-19T02:53:18;9.68;;;7.05;;
21354;SDS011;10835;50.148;19.760;2022-08-19T02:55:49;8.75;;;7.38;;
21354;SDS011;10835;50.148;19.760;2022-08-19T02:58:18;10.25;;;6.65;;
21354;SDS011;10835;50.148;19.760;2022-08-19T03:00:48;9.63;;;7.25;;
21354;SDS011;10835;50.148;19.760;2022-08-19T03:03:18;11.57;;;7.45;;
21354;SDS011;10835;50.148;19.760;2022-08-19T03:05:46;9.43;;;7.75;;
21354;SDS011;10835;50.148;19.760;2022-08-19T03:08:22;10.98;;;7.03;;
21354;SDS011;10835;50.148;19.760;2022-08-19T03:10:53;12.02;;;8.10;;
21354;SDS011;10835;50.148;19.760;2022-08-19T03:13:21;10.98;;;7.57;;
21354;SDS011;10835;50.148;19.760;2022-08-19T03:15:49;8.50;;;6.80;;
21354;SDS011;10835;50.148;19.760;2022-08-19T03:18:17;9.70;;;7.53;;
21354;SDS011;10835;50.148;19.760;2022-08-19T03:20:49;10.32;;;7.88;;
21354;SDS011;10835;50.148;19.760;2022-08-19T03:23:19;11.18;;;7.60;;
21354;SDS011;10835;50.148;19.760;2022-08-19T03:25:48;10.20;;;7.78;;
21354;SDS011;10835;50.148;19.760;2022-08-19T03:28:39;11.45;;;7.03;;
21354;SDS011;10835;50.148;19.760;2022-08-19T03:31:15;11.85;;;7.53;;
21354;SDS011;10835;50.148;19.760;2022-08-19T03:34:04;8.20;;;6.65;;
21354;SDS011;10835;50.148;19.760;2022-08-19T03:36:33;10.75;;;7.82;;
21354;SDS011;10835;50.148;19.760;2022-08-19T03:39:01;8.95;;;7.47;;
21354;SDS011;10835;50.148;19.760;2022-08-19T03:41:31;9.07;;;7.28;;
21354;SDS011;10835;50.148;19.760;2022-08-19T03:44:13;10.10;;;7.85;;
21354;SDS011;10835;50.148;19.760;2022-08-19T03:46:44;9.65;;;7.45;;
21354;SDS011;10835;50.148;19.760;2022-08-19T03:49:13;12.02;;;7.90;;
21354;SDS011;10835;50.148;19.760;2022-08-19T03:51:43;10.30;;;7.78;;
21354;SDS011;10835;50.148;19.760;2022-08-19T03:54:14;15.32;;;7.63;;
21354;SDS011;10835;50.148;19.760;2022-08-19T03:56:44;12.43;;;7.18;;
21354;SDS011;10835;50.148;19.760;2022-08-19T03:59:16;11.75;;;7.80;;
21354;SDS011;10835;50.148;19.760;2022-08-19T04:01:46;12.48;;;7.57;;
21354;SDS011;10835;50.148;19.760;2022-08-19T04:04:14;8.65;;;7.13;;
21354;SDS011;10835;50.148;19.760;2022-08-19T04:06:45;9.68;;;6.90;;
21354;SDS011;10835;50.148;19.760;2022-08-19T04:09:14;10.82;;;6.80;;
21354;SDS011;10835;50.148;19.760;2022-08-19T04:11:43;9.05;;;6.93;;
21354;SDS011;10835;50.148;19.760;2022-08-19T04:14:15;9.90;;;7.22;;
21354;SDS011;10835;50.148;19.760;2022-08-19T04:16:45;9.65;;;6.93;;
21354;SDS011;10835;50.148;19.760;2022-08-19T04:19:15;10.98;;;6.90;;
21354;SDS011;10835;50.148;19.760;2022-08-19T04:21:44;8.90;;;7.18;;
21354;SDS011;10835;50.148;19.760;2022-08-19T04:24:16;8.77;;;7.00;;
21354;SDS011;10835;50.148;19.760;2022-08-19T04:26:45;9.00;;;7.50;;
21354;SDS011;10835;50.148;19.760;2022-08-19T04:29:16;9.98;;;7.50;;
21354;SDS011;10835;50.148;19.760;2022-08-19T04:31:48;9.65;;;7.07;;
21354;SDS011;10835;50.148;19.760;2022-08-19T04:34:18;9.77;;;6.97;;
21354;SDS011;10835;50.148;19.760;2022-08-19T04:36:49;10.63;;;7.63;;
21354;SDS011;10835;50.148;19.760;2022-08-19T04:39:21;8.88;;;6.95;;
21354;SDS011;10835;50.148;19.760;2022-08-19T04:42:10;10.10;;;6.72;;
21354;SDS011;10835;50.148;19.760;2022-08-19T04:44:58;10.00;;;7.85;;
21354;SDS011;10835;50.148;19.760;2022-08-19T04:47:26;9.55;;;7.65;;
21354;SDS011;10835;50.148;19.760;2022-08-19T04:50:14;11.48;;;7.82;;
21354;SDS011;10835;50.148;19.760;2022-08-19T04:52:44;11.05;;;7.75;;
21354;SDS011;10835;50.148;19.760;2022-08-19T04:55:12;11.70;;;7.95;;
21354;SDS011;10835;50.148;19.760;2022-08-19T04:57:41;12.80;;;7.53;;
21354;SDS011;10835;50.148;19.760;2022-08-19T05:00:10;10.73;;;8.43;;
21354;SDS011;10835;50.148;19.760;2022-08-19T05:02:39;13.13;;;7.78;;
21354;SDS011;10835;50.148;19.760;2022-08-19T05:05:08;10.98;;;7.72;;
21354;SDS011;10835;50.148;19.760;2022-08-19T05:07:36;10.82;;;8.48;;
21354;SDS011;10835;50.148;19.760;2022-08-19T05:10:05;11.75;;;7.65;;
21354;SDS011;10835;50.148;19.760;2022-08-19T05:12:34;13.23;;;8.50;;
21354;SDS011;10835;50.148;19.760;2022-08-19T05:15:07;9.57;;;7.97;;
21354;SDS011;10835;50.148;19.760;2022-08-19T05:17:37;11.00;;;7.32;;
21354;SDS011;10835;50.148;19.760;2022-08-19T05:30:47;11.18;;;8.00;;
21354;SDS011;10835;50.148;19.760;2022-08-19T05:33:17;10.73;;;7.25;;
21354;SDS011;10835;50.148;19.760;2022-08-19T05:35:46;10.27;;;7.70;;
21354;SDS011;10835;50.148;19.760;2022-08-19T05:38:15;11.40;;;8.27;;
21354;SDS011;10835;50.148;19.760;2022-08-19T05:40:44;10.30;;;7.82;;
21354;SDS011;10835;50.148;19.760;2022-08-19T05:43:13;10.98;;;7.68;;
21354;SDS011;10835;50.148;19.760;2022-08-19T05:45:42;11.65;;;7.50;;
21354;SDS011;10835;50.148;19.760;2022-08-19T05:48:14;8.90;;;7.85;;
21354;SDS011;10835;50.148;19.760;2022-08-19T05:50:46;11.48;;;7.80;;
21354;SDS011;10835;50.148;19.760;2022-08-19T05:53:16;13.10;;;7.95;;
21354;SDS011;10835;50.148;19.760;2022-08-19T05:55:44;11.38;;;8.20;;
21354;SDS011;10835;50.148;19.760;2022-08-19T05:58:12;16.15;;;8.63;;
21354;SDS011;10835;50.148;19.760;2022-08-19T06:00:42;10.25;;;7.95;;
21354;SDS011;10835;50.148;19.760;2022-08-19T06:03:11;10.77;;;7.68;;
21354;SDS011;10835;50.148;19.760;2022-08-19T06:05:41;11.80;;;7.88;;
21354;SDS011;10835;50.148;19.760;2022-08-19T06:08:17;14.70;;;8.50;;
21354;SDS011;10835;50.148;19.760;2022-08-19T06:11:11;10.77;;;8.02;;
21354;SDS011;10835;50.148;19.760;2022-08-19T06:13:42;11.35;;;7.95;;
21354;SDS011;10835;50.148;19.760;2022-08-19T06:16:13;12.13;;;8.65;;
21354;SDS011;10835;50.148;19.760;2022-08-19T06:18:46;10.50;;;8.10;;
21354;SDS011;10835;50.148;19.760;2022-08-19T06:21:16;10.65;;;8.02;;
21354;SDS011;10835;50.148;19.760;2022-08-19T06:23:44;10.18;;;7.93;;
21354;SDS011;10835;50.148;19.760;2022-08-19T06:26:13;10.90;;;9.13;;
21354;SDS011;10835;50.148;19.760;2022-08-19T06:28:42;13.18;;;7.60;;
21354;SDS011;10835;50.148;19.760;2022-08-19T06:31:13;10.60;;;8.07;;
21354;SDS011;10835;50.148;19.760;2022-08-19T06:33:42;13.40;;;8.25;;
21354;SDS011;10835;50.148;19.760;2022-08-19T06:36:21;10.57;;;7.90;;
21354;SDS011;10835;50.148;19.760;2022-08-19T06:38:54;11.52;;;8.30;;
21354;SDS011;10835;50.148;19.760;2022-08-19T06:41:24;10.20;;;7.40;;
21354;SDS011;10835;50.148;19.760;2022-08-19T06:43:52;12.93;;;8.05;;
21354;SDS011;10835;50.148;19.760;2022-08-19T06:46:22;10.80;;;8.00;;
21354;SDS011;10835;50.148;19.760;2022-08-19T06:48:51;14.25;;;7.82;;
21354;SDS011;10835;50.148;19.760;2022-08-19T06:51:22;12.55;;;7.90;;
21354;SDS011;10835;50.148;19.760;2022-08-19T06:53:57;16.63;;;8.73;;
21354;SDS011;10835;50.148;19.760;2022-08-19T06:56:27;10.27;;;7.95;;
21354;SDS011;10835;50.148;19.760;2022-08-19T06:59:00;12.98;;;8.73;;
21354;SDS011;10835;50.148;19.760;2022-08-19T07:01:28;9.77;;;6.75;;
21354;SDS011;10835;50.148;19.760;2022-08-19T07:03:56;12.57;;;6.82;;
21354;SDS011;10835;50.148;19.760;2022-08-19T07:06:26;11.27;;;7.43;;
21354;SDS011;10835;50.148;19.760;2022-08-19T07:09:11;10.35;;;7.70;;
21354;SDS011;10835;50.148;19.760;2022-08-19T07:11:44;11.55;;;7.18;;
21354;SDS011;10835;50.148;19.760;2022-08-19T07:14:13;11.85;;;7.78;;
21354;SDS011;10835;50.148;19.760;2022-08-19T07:16:46;12.43;;;7.25;;
21354;SDS011;10835;50.148;19.760;2022-08-19T07:19:15;16.25;;;7.78;;
21354;SDS011;10835;50.148;19.760;2022-08-19T07:21:46;10.93;;;7.55;;
21354;SDS011;10835;50.148;19.760;2022-08-19T07:24:16;12.40;;;8.52;;
21354;SDS011;10835;50.148;19.760;2022-08-19T07:26:50;9.70;;;7.32;;
21354;SDS011;10835;50.148;19.760;2022-08-19T07:29:19;15.70;;;7.78;;
21354;SDS011;10835;50.148;19.760;2022-08-19T07:31:54;8.68;;;7.40;;
21354;SDS011;10835;50.148;19.760;2022-08-19T07:34:26;12.10;;;7.78;;
21354;SDS011;10835;50.148;19.760;2022-08-19T07:36:57;8.98;;;7.25;;
21354;SDS011;10835;50.148;19.760;2022-08-19T07:39:27;9.18;;;6.85;;
21354;SDS011;10835;50.148;19.760;2022-08-19T07:42:05;7.22;;;6.45;;
21354;SDS011;10835;50.148;19.760;2022-08-19T07:44:39;10.98;;;8.10;;
21354;SDS011;10835;50.148;19.760;2022-08-19T07:47:21;10.75;;;7.30;;
21354;SDS011;10835;50.148;19.760;2022-08-19T07:50:15;10.77;;;7.60;;
21354;SDS011;10835;50.148;19.760;2022-08-19T07:52:45;11.30;;;7.78;;
21354;SDS011;10835;50.148;19.760;2022-08-19T07:55:16;8.73;;;7.25;;
21354;SDS011;10835;50.148;19.760;2022-08-19T07:58:06;8.85;;;6.47;;
21354;SDS011;10835;50.148;19.760;2022-08-19T08:00:34;11.27;;;7.32;;
21354;SDS011;10835;50.148;19.760;2022-08-19T08:03:03;9.07;;;6.93;;
21354;SDS011;10835;50.148;19.760;2022-08-19T08:05:31;10.68;;;7.00;;
21354;SDS011;10835;50.148;19.760;2022-08-19T08:08:27;8.05;;;6.65;;
21354;SDS011;10835;50.148;19.760;2022-08-19T08:11:25;12.30;;;7.28;;
21354;SDS011;10835;50.148;19.760;2022-08-19T08:13:55;13.43;;;6.47;;
21354;SDS011;10835;50.148;19.760;2022-08-19T08:16:30;10.88;;;6.93;;
21354;SDS011;10835;50.148;19.760;2022-08-19T08:19:05;11.32;;;7.38;;
21354;SDS011;10835;50.148;19.760;2022-08-19T08:21:51;9.10;;;6.90;;
21354;SDS011;10835;50.148;19.760;2022-08-19T08:24:21;10.25;;;6.88;;
21354;SDS011;10835;50.148;19.760;2022-08-19T08:26:54;9.77;;;6.68;;
21354;SDS011;10835;50.148;19.760;2022-08-19T08:29:25;12.80;;;6.80;;
21354;SDS011;10835;50.148;19.760;2022-08-19T08:32:02;14.95;;;6.70;;
21354;SDS011;10835;50.148;19.760;2022-08-19T08:34:40;12.27;;;7.18;;
21354;SDS011;10835;50.148;19.760;2022-08-19T08:37:08;14.48;;;6.60;;
21354;SDS011;10835;50.148;19.760;2022-08-19T08:39:38;16.88;;;7.50;;
21354;SDS011;10835;50.148;19.760;2022-08-19T08:42:07;11.05;;;6.40;;
21354;SDS011;10835;50.148;19.760;2022-08-19T08:44:45;8.90;;;6.25;;
21354;SDS011;10835;50.148;19.760;2022-08-19T08:47:24;15.77;;;6.93;;
21354;SDS011;10835;50.148;19.760;2022-08-19T08:49:53;12.73;;;7.03;;
21354;SDS011;10835;50.148;19.760;2022-08-19T08:52:26;9.88;;;5.97;;
21354;SDS011;10835;50.148;19.760;2022-08-19T08:55:00;12.48;;;6.60;;
21354;SDS011;10835;50.148;19.760;2022-08-19T08:57:37;11.20;;;6.53;;
21354;SDS011;10835;50.148;19.760;2022-08-19T09:00:22;9.32;;;6.82;;
21354;SDS011;10835;50.148;19.760;2022-08-19T09:02:53;7.07;;;5.80;;
21354;SDS011;10835;50.148;19.760;2022-08-19T09:05:22;13.45;;;7.20;;
21354;SDS011;10835;50.148;19.760;2022-08-19T09:08:05;11.73;;;6.72;;
21354;SDS011;10835;50.148;19.760;2022-08-19T09:10:42;10.23;;;6.63;;
21354;SDS011;10835;50.148;19.760;2022-08-19T09:13:23;15.90;;;6.63;;
21354;SDS011;10835;50.148;19.760;2022-08-19T09:16:05;12.07;;;6.20;;
21354;SDS011;10835;50.148;19.760;2022-08-19T09:18:38;10.80;;;6.50;;
21354;SDS011;10835;50.148;19.760;2022-08-19T09:21:09;11.45;;;6.22;;
21354;SDS011;10835;50.148;19.760;2022-08-19T09:23:37;13.10;;;6.47;;
21354;SDS011;10835;50.148;19.760;2022-08-19T09:26:08;10.02;;;5.75;;
21354;SDS011;10835;50.148;19.760;2022-08-19T09:28:42;8.52;;;5.80;;
21354;SDS011;10835;50.148;19.760;2022-08-19T09:31:15;11.55;;;6.68;;
21354;SDS011;10835;50.148;19.760;2022-08-19T09:33:44;9.40;;;5.57;;
21354;SDS011;10835;50.148;19.760;2022-08-19T09:36:18;10.95;;;6.60;;
21354;SDS011;10835;50.148;19.760;2022-08-19T09:39:02;10.13;;;5.85;;
21354;SDS011;10835;50.148;19.760;2022-08-19T09:41:43;6.35;;;5.70;;
21354;SDS011;10835;50.148;19.760;2022-08-19T09:44:14;12.75;;;6.32;;
21354;SDS011;10835;50.148;19.760;2022-08-19T09:46:44;12.82;;;6.18;;
21354;SDS011;10835;50.148;19.760;2022-08-19T09:49:14;8.77;;;5.07;;
21354;SDS011;10835;50.148;19.760;2022-08-19T09:51:44;7.93;;;5.35;;
21354;SDS011;10835;50.148;19.760;2022-08-19T09:54:16;9.73;;;5.30;;
21354;SDS011;10835;50.148;19.760;2022-08-19T09:56:51;9.73;;;5.70;;
21354;SDS011;10835;50.148;19.760;2022-08-19T09:59:19;10.02;;;5.03;;
21354;SDS011;10835;50.148;19.760;2022-08-19T10:01:48;9.48;;;5.43;;
21354;SDS011;10835;50.148;19.760;2022-08-19T10:04:17;9.95;;;5.40;;
21354;SDS011;10835;50.148;19.760;2022-08-19T10:06:48;7.50;;;5.30;;
21354;SDS011;10835;50.148;19.760;2022-08-19T10:09:20;12.40;;;5.57;;
21354;SDS011;10835;50.148;19.760;2022-08-19T10:12:00;9.73;;;5.53;;
21354;SDS011;10835;50.148;19.760;2022-08-19T10:14:29;10.45;;;5.60;;
21354;SDS011;10835;50.148;19.760;2022-08-19T10:16:57;6.78;;;5.28;;
21354;SDS011;10835;50.148;19.760;2022-08-19T10:19:30;10.80;;;5.68;;
21354;SDS011;10835;50.148;19.760;2022-08-19T10:22:02;7.90;;;5.57;;
21354;SDS011;10835;50.148;19.760;2022-08-19T10:24:37;9.73;;;5.40;;
21354;SDS011;10835;50.148;19.760;2022-08-19T10:27:08;7.68;;;5.07;;
21354;SDS011;10835;50.148;19.760;2022-08-19T10:29:36;8.32;;;5.15;;
21354;SDS011;10835;50.148;19.760;2022-08-19T10:32:11;8.55;;;5.10;;
21354;SDS011;10835;50.148;19.760;2022-08-19T10:34:40;7.85;;;5.45;;
21354;SDS011;10835;50.148;19.760;2022-08-19T10:37:14;11.13;;;5.05;;
21354;SDS011;10835;50.148;19.760;2022-08-19T10:39:54;8.23;;;5.35;;
21354;SDS011;10835;50.148;19.760;2022-08-19T10:42:23;12.68;;;5.80;;
21354;SDS011;10835;50.148;19.760;2022-08-19T10:44:52;8.30;;;5.45;;
21354;SDS011;10835;50.148;19.760;2022-08-19T10:47:20;5.85;;;4.53;;
21354;SDS011;10835;50.148;19.760;2022-08-19T10:49:57;12.55;;;5.22;;
21354;SDS011;10835;50.148;19.760;2022-08-19T10:52:43;8.23;;;5.00;;
21354;SDS011;10835;50.148;19.760;2022-08-19T10:55:15;6.88;;;5.00;;
21354;SDS011;10835;50.148;19.760;2022-08-19T10:58:03;9.23;;;4.97;;
21354;SDS011;10835;50.148;19.760;2022-08-19T11:00:36;15.55;;;5.10;;
21354;SDS011;10835;50.148;19.760;2022-08-19T11:03:04;6.82;;;4.32;;
21354;SDS011;10835;50.148;19.760;2022-08-19T11:05:35;6.53;;;4.57;;
21354;SDS011;10835;50.148;19.760;2022-08-19T11:08:06;11.65;;;5.07;;
21354;SDS011;10835;50.148;19.760;2022-08-19T11:10:49;7.78;;;4.10;;
21354;SDS011;10835;50.148;19.760;2022-08-19T11:13:21;10.15;;;4.50;;
21354;SDS011;10835;50.148;19.760;2022-08-19T11:15:55;8.25;;;4.53;;
21354;SDS011;10835;50.148;19.760;2022-08-19T11:18:32;14.15;;;4.68;;
21354;SDS011;10835;50.148;19.760;2022-08-19T11:21:07;8.63;;;4.80;;
21354;SDS011;10835;50.148;19.760;2022-08-19T11:23:36;8.60;;;4.53;;
21354;SDS011;10835;50.148;19.760;2022-08-19T11:26:04;7.97;;;4.85;;
21354;SDS011;10835;50.148;19.760;2022-08-19T11:28:34;10.60;;;5.30;;
21354;SDS011;10835;50.148;19.760;2022-08-19T11:31:03;11.95;;;5.18;;
21354;SDS011;10835;50.148;19.760;2022-08-19T11:33:31;9.00;;;5.35;;
21354;SDS011;10835;50.148;19.760;2022-08-19T11:36:00;14.38;;;5.60;;
21354;SDS011;10835;50.148;19.760;2022-08-19T11:38:28;9.43;;;5.40;;
21354;SDS011;10835;50.148;19.760;2022-08-19T11:40:57;13.25;;;5.88;;
21354;SDS011;10835;50.148;19.760;2022-08-19T11:43:27;16.48;;;6.07;;
21354;SDS011;10835;50.148;19.760;2022-08-19T11:46:05;10.90;;;5.43;;
21354;SDS011;10835;50.148;19.760;2022-08-19T11:48:34;12.88;;;5.50;;
21354;SDS011;10835;50.148;19.760;2022-08-19T11:51:03;13.27;;;5.22;;
21354;SDS011;10835;50.148;19.760;2022-08-19T11:53:33;11.65;;;5.53;;
21354;SDS011;10835;50.148;19.760;2022-08-19T11:56:02;12.75;;;5.63;;
21354;SDS011;10835;50.148;19.760;2022-08-19T11:58:34;9.45;;;6.05;;
21354;SDS011;10835;50.148;19.760;2022-08-19T12:01:06;12.55;;;6.60;;
21354;SDS011;10835;50.148;19.760;2022-08-19T12:03:36;14.63;;;5.95;;
21354;SDS011;10835;50.148;19.760;2022-08-19T12:06:05;14.70;;;5.85;;
21354;SDS011;10835;50.148;19.760;2022-08-19T12:08:36;10.15;;;5.47;;
21354;SDS011;10835;50.148;19.760;2022-08-19T12:11:05;11.88;;;6.18;;
21354;SDS011;10835;50.148;19.760;2022-08-19T12:13:34;16.70;;;6.55;;
21354;SDS011;10835;50.148;19.760;2022-08-19T12:16:08;15.50;;;6.60;;
21354;SDS011;10835;50.148;19.760;2022-08-19T12:18:38;11.50;;;6.20;;
21354;SDS011;10835;50.148;19.760;2022-08-19T12:21:09;11.52;;;5.80;;
21354;SDS011;10835;50.148;19.760;2022-08-19T12:23:39;11.85;;;5.15;;
21354;SDS011;10835;50.148;19.760;2022-08-19T12:26:08;5.40;;;4.47;;
21354;SDS011;10835;50.148;19.760;2022-08-19T12:28:36;9.50;;;5.10;;
21354;SDS011;10835;50.148;19.760;2022-08-19T12:31:07;14.68;;;5.18;;
21354;SDS011;10835;50.148;19.760;2022-08-19T12:33:38;8.48;;;5.65;;
21354;SDS011;10835;50.148;19.760;2022-08-19T12:36:07;11.50;;;4.95;;
21354;SDS011;10835;50.148;19.760;2022-08-19T12:38:38;7.68;;;5.60;;
21354;SDS011;10835;50.148;19.760;2022-08-19T12:41:08;10.68;;;5.20;;
21354;SDS011;10835;50.148;19.760;2022-08-19T12:43:38;8.45;;;4.82;;
21354;SDS011;10835;50.148;19.760;2022-08-19T12:46:07;11.13;;;5.05;;
21354;SDS011;10835;50.148;19.760;2022-08-19T12:48:38;10.68;;;5.05;;
21354;SDS011;10835;50.148;19.760;2022-08-19T12:51:09;8.60;;;5.43;;
21354;SDS011;10835;50.148;19.760;2022-08-19T12:53:38;13.98;;;5.13;;
21354;SDS011;10835;50.148;19.760;2022-08-19T12:56:07;7.88;;;5.00;;
21354;SDS011;10835;50.148;19.760;2022-08-19T12:58:38;9.65;;;5.45;;
21354;SDS011;10835;50.148;19.760;2022-08-19T13:01:15;11.00;;;5.43;;
21354;SDS011;10835;50.148;19.760;2022-08-19T13:03:48;12.30;;;5.22;;
21354;SDS011;10835;50.148;19.760;2022-08-19T13:06:16;7.72;;;5.00;;
21354;SDS011;10835;50.148;19.760;2022-08-19T13:08:47;6.50;;;4.68;;
21354;SDS011;10835;50.148;19.760;2022-08-19T13:11:17;7.90;;;5.20;;
21354;SDS011;10835;50.148;19.760;2022-08-19T13:13:51;6.45;;;5.10;;
21354;SDS011;10835;50.148;19.760;2022-08-19T13:16:22;10.35;;;5.10;;
21354;SDS011;10835;50.148;19.760;2022-08-19T13:18:51;11.82;;;5.63;;
21354;SDS011;10835;50.148;19.760;2022-08-19T13:21:19;11.98;;;5.55;;
21354;SDS011;10835;50.148;19.760;2022-08-19T13:23:49;7.72;;;4.90;;
21354;SDS011;10835;50.148;19.760;2022-08-19T13:26:18;8.88;;;5.10;;
21354;SDS011;10835;50.148;19.760;2022-08-19T13:28:47;6.53;;;5.32;;
21354;SDS011;10835;50.148;19.760;2022-08-19T13:31:35;8.95;;;4.43;;
21354;SDS011;10835;50.148;19.760;2022-08-19T13:34:26;7.40;;;4.75;;
21354;SDS011;10835;50.148;19.760;2022-08-19T13:36:56;10.18;;;5.20;;
21354;SDS011;10835;50.148;19.760;2022-08-19T13:39:25;10.98;;;4.88;;
21354;SDS011;10835;50.148;19.760;2022-08-19T13:41:53;12.27;;;4.95;;
21354;SDS011;10835;50.148;19.760;2022-08-19T13:44:22;11.50;;;5.40;;
21354;SDS011;10835;50.148;19.760;2022-08-19T13:46:51;8.20;;;4.70;;
21354;SDS011;10835;50.148;19.760;2022-08-19T13:49:19;10.15;;;4.60;;
21354;SDS011;10835;50.148;19.760;2022-08-19T13:51:49;8.85;;;4.35;;
21354;SDS011;10835;50.148;19.760;2022-08-19T13:54:17;5.68;;;4.25;;
21354;SDS011;10835;50.148;19.760;2022-08-19T13:56:45;10.27;;;4.45;;
21354;SDS011;10835;50.148;19.760;2022-08-19T13:59:15;9.18;;;4.78;;
21354;SDS011;10835;50.148;19.760;2022-08-19T14:01:43;8.27;;;4.40;;
21354;SDS011;10835;50.148;19.760;2022-08-19T14:04:13;6.97;;;4.50;;
21354;SDS011;10835;50.148;19.760;2022-08-19T14:06:41;7.15;;;4.50;;
21354;SDS011;10835;50.148;19.760;2022-08-19T14:09:09;5.53;;;3.75;;
21354;SDS011;10835;50.148;19.760;2022-08-19T14:11:37;7.75;;;4.38;;
21354;SDS011;10835;50.148;19.760;2022-08-19T14:14:05;7.32;;;4.20;;
21354;SDS011;10835;50.148;19.760;2022-08-19T14:16:36;5.40;;;4.10;;
21354;SDS011;10835;50.148;19.760;2022-08-19T14:19:05;9.05;;;4.03;;
21354;SDS011;10835;50.148;19.760;2022-08-19T14:21:35;8.55;;;4.15;;
21354;SDS011;10835;50.148;19.760;2022-08-19T14:24:09;7.20;;;4.43;;
21354;SDS011;10835;50.148;19.760;2022-08-19T14:26:37;10.75;;;4.30;;
21354;SDS011;10835;50.148;19.760;2022-08-19T14:29:05;9.25;;;4.82;;
21354;SDS011;10835;50.148;19.760;2022-08-19T14:31:36;7.32;;;4.82;;
21354;SDS011;10835;50.148;19.760;2022-08-19T14:34:07;6.38;;;4.35;;
21354;SDS011;10835;50.148;19.760;2022-08-19T14:36:37;7.75;;;4.63;;
21354;SDS011;10835;50.148;19.760;2022-08-19T14:39:05;8.40;;;4.85;;
21354;SDS011;10835;50.148;19.760;2022-08-19T14:41:34;5.43;;;4.20;;
21354;SDS011;10835;50.148;19.760;2022-08-19T14:44:03;9.60;;;4.68;;
21354;SDS011;10835;50.148;19.760;2022-08-19T14:46:31;11.00;;;4.72;;
21354;SDS011;10835;50.148;19.760;2022-08-19T14:48:59;9.23;;;4.72;;
21354;SDS011;10835;50.148;19.760;2022-08-19T14:51:35;6.97;;;4.65;;
21354;SDS011;10835;50.148;19.760;2022-08-19T14:54:04;11.02;;;5.10;;
21354;SDS011;10835;50.148;19.760;2022-08-19T14:56:32;6.18;;;4.65;;
21354;SDS011;10835;50.148;19.760;2022-08-19T14:59:01;8.68;;;5.07;;
21354;SDS011;10835;50.148;19.760;2022-08-19T15:01:29;6.35;;;4.65;;
21354;SDS011;10835;50.148;19.760;2022-08-19T15:03:57;6.70;;;4.25;;